Time;durP1;ratioP1;P1;durP2;ratioP2;P2;SDS_P1;SDS_P2;PMS_P1;PMS_P2;Temp;Humidity;BMP_temperature;BMP_pressure;BME280_temperature;BME280_humidity;BME280_pressure;Samples;Min_cycle;Max_cycle;Signal;HPM_P1;HPM_P2
2023/04/14 00:01:37;;;;;;;6.80;1.92;;;;;;;3.51;100.00;100794.59;4954153;28;20057;-74
2023/04/14 00:04:03;;;;;;;3.28;1.50;;;;;;;3.49;100.00;100799.00;4942938;28;20050;-74
2023/04/14 00:06:28;;;;;;;2.70;1.23;;;;;;;3.47;100.00;100792.91;4960513;28;20255;-74
2023/04/14 00:08:54;;;;;;;6.43;1.63;;;;;;;3.47;100.00;100788.56;4976802;28;20045;-74
2023/04/14 00:11:20;;;;;;;4.30;1.65;;;;;;;3.45;100.00;100784.25;4957860;28;20044;-73
2023/04/14 00:13:45;;;;;;;4.72;1.75;;;;;;;3.42;100.00;100790.38;4960263;28;20050;-73
2023/04/14 00:16:11;;;;;;;6.40;1.95;;;;;;;3.42;100.00;100786.91;4961819;28;20054;-74
2023/04/14 00:18:37;;;;;;;5.03;1.83;;;;;;;3.39;100.00;100798.31;4960080;28;20560;-73
2023/04/14 00:21:03;;;;;;;6.05;2.17;;;;;;;3.38;100.00;100800.03;4973292;28;20030;-73
2023/04/14 00:23:28;;;;;;;7.68;2.17;;;;;;;3.36;100.00;100800.94;4954197;28;20134;-73
2023/04/14 00:25:54;;;;;;;2.25;1.70;;;;;;;3.36;100.00;100796.59;4975784;28;20509;-73
2023/04/14 00:28:20;;;;;;;3.05;1.83;;;;;;;3.35;100.00;100797.50;4960378;28;20054;-73
2023/04/14 00:30:45;;;;;;;5.13;2.00;;;;;;;3.33;100.00;100801.84;4960360;28;20052;-73
2023/04/14 00:33:11;;;;;;;3.08;1.70;;;;;;;3.33;100.00;100798.41;4942585;28;20038;-73
2023/04/14 00:35:36;;;;;;;6.40;2.10;;;;;;;3.31;100.00;100800.19;4960933;28;20382;-73
2023/04/14 00:38:02;;;;;;;7.30;2.38;;;;;;;3.30;100.00;100808.91;4956952;28;20129;-73
2023/04/14 00:40:28;;;;;;;4.32;1.77;;;;;;;3.27;100.00;100807.19;4944833;28;20072;-73
2023/04/14 00:42:54;;;;;;;5.60;2.05;;;;;;;3.28;100.00;100815.91;4941604;28;20049;-74
2023/04/14 00:45:19;;;;;;;5.90;1.92;;;;;;;3.26;100.00;100815.94;4960309;28;20073;-73
2023/04/14 00:47:46;;;;;;;5.68;1.70;;;;;;;3.26;100.00;100813.31;4941663;28;20556;-73
2023/04/14 00:50:13;;;;;;;4.85;1.80;;;;;;;3.26;100.00;100822.03;4960640;28;20049;-73
2023/04/14 00:52:39;;;;;;;4.80;1.58;;;;;;;3.25;100.00;100824.69;4960983;28;20038;-73
2023/04/14 00:55:05;;;;;;;5.07;1.98;;;;;;;3.25;100.00;100825.56;4972972;28;20039;-74
2023/04/14 00:57:31;;;;;;;4.45;1.67;;;;;;;3.24;100.00;100828.19;4955443;28;20581;-74
2023/04/14 00:59:58;;;;;;;6.28;1.83;;;;;;;3.24;100.00;100833.41;4955384;28;20053;-74
2023/04/14 01:02:24;;;;;;;6.00;2.15;;;;;;;3.24;100.00;100836.03;4943034;28;20038;-74
2023/04/14 01:04:50;;;;;;;4.93;1.98;;;;;;;3.21;100.00;100829.09;4943914;28;20073;-74
2023/04/14 01:07:20;;;;;;;4.68;2.13;;;;;;;3.20;100.00;100835.22;4958951;28;20080;-73
2023/04/14 01:09:49;;;;;;;4.18;2.50;;;;;;;3.18;100.00;100834.38;4960084;28;20034;-73
2023/04/14 01:12:34;;;;;;;4.40;1.80;;;;;;;3.14;100.00;100831.84;4945502;28;20154;-74
2023/04/14 01:15:21;;;;;;;6.78;2.35;;;;;;;3.07;100.00;100826.69;4944949;28;20789;-73
2023/04/14 01:18:01;;;;;;;5.55;2.00;;;;;;;3.02;100.00;100828.50;4955625;28;20503;-73
2023/04/14 01:20:32;;;;;;;6.60;2.05;;;;;;;2.97;100.00;100836.41;4959241;28;20038;-73
2023/04/14 01:23:05;;;;;;;3.15;1.73;;;;;;;2.94;100.00;100830.38;4972525;28;20121;-73
2023/04/14 01:26:09;;;;;;;7.68;2.17;;;;;;;2.90;100.00;100826.94;4957295;28;20042;-73
2023/04/14 01:29:05;;;;;;;3.85;1.60;;;;;;;2.87;100.00;100828.72;4960003;28;20050;-73
2023/04/14 01:31:46;;;;;;;4.60;2.20;;;;;;;2.85;100.00;100833.97;4957990;28;21893;-73
2023/04/14 01:34:22;;;;;;;4.93;2.22;;;;;;;2.82;100.00;100828.75;4955973;28;21066;-73
2023/04/14 01:37:04;;;;;;;7.15;2.80;;;;;;;2.80;100.00;100826.19;4944691;28;20061;-73
2023/04/14 01:39:33;;;;;;;6.13;2.50;;;;;;;2.79;100.00;100824.44;4956274;28;20070;-73
2023/04/14 01:42:00;;;;;;;6.88;2.92;;;;;;;2.78;100.00;100820.09;4937759;28;20034;-74
2023/04/14 01:44:27;;;;;;;5.80;2.95;;;;;;;2.77;100.00;100818.38;4957805;28;20505;-73
2023/04/14 01:46:56;;;;;;;11.15;3.35;;;;;;;2.77;100.00;100822.75;4957007;28;20047;-74
2023/04/14 01:49:22;;;;;;;6.15;3.30;;;;;;;2.75;100.00;100820.16;4955951;28;20039;-73
2023/04/14 01:51:49;;;;;;;8.50;2.95;;;;;;;2.75;100.00;100835.84;4956367;28;20045;-73
2023/04/14 01:54:15;;;;;;;8.90;2.75;;;;;;;2.75;100.00;100835.84;4955283;28;20074;-73
2023/04/14 01:56:42;;;;;;;5.88;2.90;;;;;;;2.76;100.00;100836.69;4956438;28;20034;-73
2023/04/14 01:59:08;;;;;;;10.73;3.20;;;;;;;2.74;100.00;100841.97;4955152;28;20482;-74
2023/04/14 02:01:35;;;;;;;5.82;2.67;;;;;;;2.74;100.00;100839.34;4971214;28;20066;-74
2023/04/14 02:04:01;;;;;;;6.22;2.35;;;;;;;2.72;100.00;100847.19;4955948;28;20701;-72
2023/04/14 02:06:27;;;;;;;5.57;2.65;;;;;;;2.73;100.00;100850.69;4957090;28;20566;-74
2023/04/14 02:08:53;;;;;;;5.03;2.20;;;;;;;2.74;100.00;100856.78;4944195;28;20556;-74
2023/04/14 02:11:19;;;;;;;4.25;2.10;;;;;;;2.72;100.00;100852.44;4950219;23;20050;-74
2023/04/14 02:13:46;;;;;;;4.95;1.85;;;;;;;2.71;100.00;100849.81;4972488;28;20049;-74
2023/04/14 02:16:12;;;;;;;5.60;2.03;;;;;;;2.69;100.00;100856.84;4975282;28;20034;-74
2023/04/14 02:18:38;;;;;;;3.17;1.65;;;;;;;2.69;100.00;100857.72;4978445;28;20034;-74
2023/04/14 02:21:04;;;;;;;5.45;1.77;;;;;;;2.70;100.00;100862.06;4980288;28;20497;-74
2023/04/14 02:23:30;;;;;;;6.22;2.05;;;;;;;2.70;100.00;100863.78;4964000;28;20049;-74
2023/04/14 02:26:10;;;;;;;4.75;1.75;;;;;;;2.70;100.00;100869.91;4944374;28;20042;-74
2023/04/14 02:28:42;;;;;;;5.97;2.00;;;;;;;2.71;100.00;100870.75;4981428;28;20048;-73
2023/04/14 02:31:09;;;;;;;5.70;1.75;;;;;;;2.70;100.00;100875.13;4967163;28;20034;-74
2023/04/14 02:33:36;;;;;;;4.43;1.67;;;;;;;2.71;100.00;100883.81;5001718;28;20465;-74
2023/04/14 02:36:19;;;;;;;6.60;1.80;;;;;;;2.70;100.00;100882.09;4984487;28;20246;-73
2023/04/14 02:38:47;;;;;;;4.22;1.60;;;;;;;2.69;100.00;100885.59;4995039;28;20080;-74
2023/04/14 02:41:21;;;;;;;3.80;1.63;;;;;;;2.67;100.00;100882.13;4994008;28;20717;-74
2023/04/14 02:43:50;;;;;;;5.20;1.70;;;;;;;2.66;100.00;100894.34;4993905;28;20037;-74
2023/04/14 02:46:16;;;;;;;6.65;2.20;;;;;;;2.66;100.00;100893.47;4977173;28;20057;-73
2023/04/14 02:48:43;;;;;;;2.25;1.80;;;;;;;2.65;100.00;100892.59;4978311;28;20491;-73
2023/04/14 02:51:11;;;;;;;6.13;1.67;;;;;;;2.63;100.00;100888.28;4975116;28;20069;-74
2023/04/14 02:53:37;;;;;;;5.53;1.95;;;;;;;2.63;100.00;100893.50;4966214;28;20679;-73
2023/04/14 02:56:03;;;;;;;5.93;1.85;;;;;;;2.61;100.00;100901.34;4992331;28;20042;-73
2023/04/14 02:58:28;;;;;;;6.03;1.70;;;;;;;2.60;100.00;100899.63;4982401;28;20049;-74
2023/04/14 03:00:55;;;;;;;4.60;1.85;;;;;;;2.57;100.00;100903.13;4977120;28;20651;-74
2023/04/14 03:03:21;;;;;;;5.55;1.98;;;;;;;2.56;100.00;100914.47;4978297;28;21631;-74
2023/04/14 03:05:47;;;;;;;6.05;1.98;;;;;;;2.55;100.00;100904.91;4978097;28;20034;-74
2023/04/14 03:08:14;;;;;;;4.32;1.73;;;;;;;2.54;100.00;100910.16;4980363;28;20346;-74
2023/04/14 03:10:41;;;;;;;2.15;1.50;;;;;;;2.52;100.00;100912.81;4977143;28;20104;-74
2023/04/14 03:13:07;;;;;;;5.75;1.77;;;;;;;2.51;100.00;100913.66;4979469;28;20046;-74
2023/04/14 03:15:34;;;;;;;4.07;1.88;;;;;;;2.50;100.00;100913.69;4972717;28;20480;-74
2023/04/14 03:18:00;;;;;;;2.88;1.77;;;;;;;2.46;100.00;100918.09;4961543;28;20073;-74
2023/04/14 03:20:25;;;;;;;3.78;1.88;;;;;;;2.44;100.00;100922.44;4930100;28;20592;-73
2023/04/14 03:23:05;;;;;;;11.85;2.03;;;;;;;2.42;100.00;100912.03;4974081;28;20050;-74
2023/04/14 03:25:34;;;;;;;7.07;2.00;;;;;;;2.42;100.00;100919.88;4960619;28;20034;-73
2023/04/14 03:28:01;;;;;;;3.83;1.90;;;;;;;2.39;100.00;100911.19;4942885;28;20565;-74
2023/04/14 03:30:31;;;;;;;8.63;1.85;;;;;;;2.38;100.00;100922.50;4973921;28;20095;-74
2023/04/14 03:33:08;;;;;;;4.97;1.88;;;;;;;2.37;100.00;100920.78;4946151;28;20105;-73
2023/04/14 03:35:35;;;;;;;4.97;2.20;;;;;;;2.35;100.00;100923.44;4945723;28;20042;-73
2023/04/14 03:38:01;;;;;;;5.82;2.33;;;;;;;2.30;100.00;100920.84;4960933;28;20026;-74
2023/04/14 03:40:30;;;;;;;2.85;1.98;;;;;;;2.28;100.00;100925.22;4958780;28;20530;-74
2023/04/14 03:42:59;;;;;;;5.30;2.00;;;;;;;2.27;100.00;100928.72;4961650;28;20153;-73
2023/04/14 03:45:25;;;;;;;5.40;2.03;;;;;;;2.26;100.00;100920.88;4976730;28;20745;-74
2023/04/14 03:47:59;;;;;;;6.68;2.00;;;;;;;2.25;100.00;100919.16;4964365;28;20039;-73
2023/04/14 03:50:35;;;;;;;5.78;2.00;;;;;;;2.25;100.00;100913.94;4976730;28;20409;-73
2023/04/14 03:53:01;;;;;;;7.10;2.42;;;;;;;2.23;100.00;100911.34;4961467;28;20041;-74
2023/04/14 03:55:30;;;;;;;4.95;2.15;;;;;;;2.24;100.00;100917.44;4958810;28;20054;-74
2023/04/14 03:57:58;;;;;;;4.88;2.20;;;;;;;2.22;100.00;100914.81;4927069;28;20057;-74
2023/04/14 04:00:25;;;;;;;5.00;2.13;;;;;;;2.23;100.00;100920.94;4958080;28;20237;-73
2023/04/14 04:02:52;;;;;;;5.40;1.95;;;;;;;2.24;100.00;100926.13;4959654;28;20069;-74
2023/04/14 04:05:19;;;;;;;4.93;2.28;;;;;;;2.22;100.00;100924.44;4955101;28;20034;-73
2023/04/14 04:07:45;;;;;;;3.50;1.98;;;;;;;2.23;100.00;100923.53;4956900;28;20057;-74
2023/04/14 04:10:12;;;;;;;2.75;2.30;;;;;;;2.23;100.00;100924.41;4973695;28;20097;-74
2023/04/14 04:12:40;;;;;;;4.00;2.20;;;;;;;2.25;100.00;100925.28;4958127;28;20049;-74
2023/04/14 04:15:07;;;;;;;4.88;2.15;;;;;;;2.26;100.00;100929.59;4960904;28;20042;-74
2023/04/14 04:17:34;;;;;;;5.07;2.15;;;;;;;2.27;100.00;100933.06;4975100;28;20131;-73
2023/04/14 04:20:00;;;;;;;4.82;2.25;;;;;;;2.26;100.00;100939.19;4960608;28;20039;-74
2023/04/14 04:22:27;;;;;;;3.92;2.15;;;;;;;2.27;100.00;100939.19;4958260;28;20050;-74
2023/04/14 04:24:53;;;;;;;3.70;2.38;;;;;;;2.28;100.00;100942.63;4959292;28;20042;-74
2023/04/14 04:27:21;;;;;;;5.85;2.30;;;;;;;2.28;100.00;100946.13;4943317;28;20042;-74
2023/04/14 04:29:47;;;;;;;7.30;2.42;;;;;;;2.28;100.00;100937.41;4942867;28;20042;-74
2023/04/14 04:32:13;;;;;;;5.90;2.35;;;;;;;2.28;100.00;100950.47;4960213;28;20042;-74
2023/04/14 04:34:39;;;;;;;6.78;2.55;;;;;;;2.28;100.00;100948.75;4965424;28;22134;-74
2023/04/14 04:37:05;;;;;;;6.05;2.38;;;;;;;2.28;100.00;100946.13;4960852;28;20041;-74
2023/04/14 04:39:31;;;;;;;4.57;2.45;;;;;;;2.29;100.00;100947.84;4965075;28;20039;-74
2023/04/14 04:42:01;;;;;;;6.13;2.85;;;;;;;2.30;100.00;100938.28;4947147;28;20046;-74
2023/04/14 04:44:27;;;;;;;5.80;2.30;;;;;;;2.31;100.00;100942.63;4976619;28;20049;-73
2023/04/14 04:46:54;;;;;;;4.22;1.98;;;;;;;2.34;100.00;100957.41;4947259;28;20038;-74
2023/04/14 04:49:20;;;;;;;6.03;2.50;;;;;;;2.35;100.00;100952.19;4963634;28;20444;-73
2023/04/14 04:51:46;;;;;;;4.45;2.20;;;;;;;2.37;100.00;100945.19;4964080;28;20049;-74
2023/04/14 04:54:12;;;;;;;4.47;2.15;;;;;;;2.38;100.00;100954.75;4944521;28;20513;-73
2023/04/14 04:56:37;;;;;;;7.55;2.42;;;;;;;2.39;100.00;100945.16;4964463;28;20034;-74
2023/04/14 04:59:03;;;;;;;2.83;1.90;;;;;;;2.40;100.00;100954.75;4960350;28;20034;-74
2023/04/14 05:01:29;;;;;;;14.52;6.13;;;;;;;2.41;100.00;100951.25;4947289;28;20034;-74
2023/04/14 05:03:54;;;;;;;4.55;2.28;;;;;;;2.40;100.00;100949.50;4946356;28;20708;-74
2023/04/14 05:06:20;;;;;;;5.50;2.10;;;;;;;2.40;100.00;100965.19;4945862;28;20034;-75
2023/04/14 05:08:46;;;;;;;5.38;2.00;;;;;;;2.37;100.00;100955.63;4978407;28;20030;-74
2023/04/14 05:11:14;;;;;;;5.47;2.47;;;;;;;2.37;100.00;100962.59;4965295;28;20038;-74
2023/04/14 05:13:40;;;;;;;3.42;1.95;;;;;;;2.35;100.00;100956.53;4964060;28;20081;-74
2023/04/14 05:16:09;;;;;;;2.45;2.10;;;;;;;2.36;100.00;100959.13;4964416;28;20049;-74
2023/04/14 05:18:38;;;;;;;2.95;2.00;;;;;;;2.37;100.00;100959.97;4946805;28;20123;-74
2023/04/14 05:21:05;;;;;;;5.53;2.30;;;;;;;2.38;100.00;100951.25;4915717;28;20038;-74
2023/04/14 05:23:35;;;;;;;4.20;1.88;;;;;;;2.40;100.00;100952.97;4945790;28;20153;-75
2023/04/14 05:26:01;;;;;;;2.72;1.95;;;;;;;2.42;100.00;100955.59;4945807;28;20243;-74
2023/04/14 05:28:27;;;;;;;4.53;2.13;;;;;;;2.44;100.00;100956.44;4944499;28;20113;-73
2023/04/14 05:30:52;;;;;;;6.30;2.10;;;;;;;2.48;100.00;100963.38;4947073;28;20112;-74
2023/04/14 05:33:18;;;;;;;5.38;1.95;;;;;;;2.51;100.00;100960.72;4964169;28;20121;-74
2023/04/14 05:35:44;;;;;;;4.50;2.30;;;;;;;2.54;100.00;100960.69;4960854;28;20596;-74
2023/04/14 05:38:13;;;;;;;5.65;2.08;;;;;;;2.56;100.00;100956.31;4975414;28;20113;-74
2023/04/14 05:40:39;;;;;;;6.78;2.42;;;;;;;2.58;100.00;100959.75;4960621;28;20106;-74
2023/04/14 05:43:05;;;;;;;6.72;2.30;;;;;;;2.62;100.00;100965.81;4954773;28;20048;-75
2023/04/14 05:45:30;;;;;;;5.25;2.45;;;;;;;2.67;100.00;100973.66;4944237;28;20046;-74
2023/04/14 05:47:56;;;;;;;4.13;2.00;;;;;;;2.70;100.00;100973.59;4957579;28;21178;-73
2023/04/14 05:50:22;;;;;;;4.40;2.10;;;;;;;2.72;100.00;100966.59;4960722;28;20077;-76
2023/04/14 05:52:48;;;;;;;6.00;2.03;;;;;;;2.77;100.00;100975.25;4960091;28;20074;-73
2023/04/14 05:55:14;;;;;;;4.95;2.45;;;;;;;2.79;100.00;100978.72;4961676;28;20050;-74
2023/04/14 05:57:40;;;;;;;6.40;2.72;;;;;;;2.80;100.00;100979.59;4964514;28;20387;-72
2023/04/14 06:00:06;;;;;;;3.92;2.65;;;;;;;2.84;100.00;100979.53;4962687;28;20046;-72
2023/04/14 06:02:32;;;;;;;6.63;3.10;;;;;;;2.88;100.00;100972.53;4963026;28;20057;-73
2023/04/14 06:05:00;;;;;;;7.55;2.70;;;;;;;2.94;100.00;100982.06;4943564;28;20031;-73
2023/04/14 06:07:26;;;;;;;5.30;3.10;;;;;;;2.98;100.00;100978.53;4959646;28;20034;-73
2023/04/14 06:09:52;;;;;;;7.65;3.20;;;;;;;3.04;100.00;100973.22;4960770;28;20030;-73
2023/04/14 06:12:18;;;;;;;5.72;3.47;;;;;;;3.12;100.00;100976.59;4961567;28;20089;-74
2023/04/14 06:14:44;;;;;;;4.90;2.75;;;;;;;3.20;100.00;100973.91;4962970;28;20401;-71
2023/04/14 06:17:09;;;;;;;6.70;2.75;;;;;;;3.26;100.00;100975.56;4960412;28;20046;-73
2023/04/14 06:19:35;;;;;;;4.38;2.90;;;;;;;3.31;100.00;100976.38;4976537;28;20788;-74
2023/04/14 06:22:00;;;;;;;5.65;2.97;;;;;;;3.38;100.00;100972.78;4955771;28;20049;-73
2023/04/14 06:24:26;;;;;;;4.35;2.95;;;;;;;3.48;100.00;100968.28;4959621;28;20050;-74
2023/04/14 06:26:51;;;;;;;5.10;3.03;;;;;;;3.58;100.00;100969.03;4962315;28;20042;-74
2023/04/14 06:29:17;;;;;;;5.88;3.00;;;;;;;3.70;100.00;100972.38;4976680;28;20074;-73
2023/04/14 06:31:43;;;;;;;8.80;3.42;;;;;;;3.88;100.00;100971.22;4959455;28;21672;-73
2023/04/14 06:34:08;;;;;;;7.45;3.45;;;;;;;4.12;100.00;100966.47;4942389;28;20049;-73
2023/04/14 06:36:34;;;;;;;6.75;3.65;;;;;;;4.35;100.00;100973.94;4961660;28;20496;-73
2023/04/14 06:38:59;;;;;;;8.38;3.88;;;;;;;4.57;100.00;100969.19;4963202;28;20112;-73
2023/04/14 06:41:25;;;;;;;5.22;2.95;;;;;;;4.76;100.00;100979.34;4958045;28;20058;-72
2023/04/14 06:43:51;;;;;;;7.13;3.15;;;;;;;4.91;100.00;100978.19;4961837;28;20050;-73
2023/04/14 06:46:17;;;;;;;7.07;3.15;;;;;;;5.10;100.00;100973.44;4977561;28;20046;-72
2023/04/14 06:48:42;;;;;;;8.77;3.15;;;;;;;5.34;100.00;100968.53;4943342;28;20034;-72
2023/04/14 06:51:11;;;;;;;6.28;3.53;;;;;;;5.59;100.00;100973.25;4958674;28;20111;-72
2023/04/14 06:53:37;;;;;;;6.00;2.88;;;;;;;5.79;100.00;100975.44;4957357;28;20030;-73
2023/04/14 06:56:04;;;;;;;6.88;3.67;;;;;;;5.93;100.00;100968.97;4974836;28;20427;-72
2023/04/14 06:58:30;;;;;;;7.60;3.40;;;;;;;6.07;100.00;100969.56;4973492;28;20740;-75
2023/04/14 07:00:57;;;;;;;6.28;3.40;;;;;;;6.18;100.00;100968.41;4961691;28;20030;-73
2023/04/14 07:03:22;;;;;;;10.40;3.72;;;;;;;6.28;100.00;100972.56;4960929;28;20060;-72
2023/04/14 07:05:48;;;;;;;5.03;3.03;;;;;;;6.43;100.00;100978.31;4958885;28;21774;-73
2023/04/14 07:08:13;;;;;;;7.90;3.40;;;;;;;6.58;100.00;100964.75;4960985;28;20033;-73
2023/04/14 07:10:39;;;;;;;6.68;3.50;;;;;;;6.72;100.00;100974.03;4961180;28;20049;-72
2023/04/14 07:13:04;;;;;;;5.50;3.10;;;;;;;6.89;100.00;100969.19;4956014;28;20054;-75
2023/04/14 07:15:30;;;;;;;7.90;3.42;;;;;;;7.09;100.00;100965.13;4958384;28;20038;-74
2023/04/14 07:17:55;;;;;;;9.68;3.88;;;;;;;7.27;100.00;100966.38;4959330;28;20132;-74
2023/04/14 07:20:21;;;;;;;6.35;3.22;;;;;;;7.41;100.00;100960.66;4971453;28;20072;-73
2023/04/14 07:22:47;;;;;;;5.60;3.55;;;;;;;7.48;100.00;100962.19;4950672;28;20731;-75
2023/04/14 07:25:13;;;;;;;7.63;3.28;;;;;;;7.55;100.00;100973.44;4975325;28;20045;-74
2023/04/14 07:27:38;;;;;;;7.07;3.22;;;;;;;7.59;100.00;100955.75;4957903;28;20034;-75
2023/04/14 07:30:04;;;;;;;8.82;3.75;;;;;;;7.66;100.00;100962.56;4955673;28;20038;-74
2023/04/14 07:32:30;;;;;;;7.65;3.40;;;;;;;7.74;100.00;100970.22;4942235;28;20363;-74
2023/04/14 07:34:57;;;;;;;8.90;3.30;;;;;;;7.89;100.00;100966.22;4959317;28;20158;-74
2023/04/14 07:37:23;;;;;;;6.13;3.00;;;;;;;7.98;100.00;100967.69;4972440;28;20033;-73
2023/04/14 07:39:48;;;;;;;8.90;2.92;;;;;;;7.96;100.00;100975.66;4953425;28;20413;-74
2023/04/14 07:42:14;;;;;;;6.88;2.78;;;;;;;8.05;100.00;100976.28;4953496;28;20104;-72
2023/04/14 07:44:40;;;;;;;6.35;2.90;;;;;;;8.23;100.00;100970.38;4959559;28;20076;-75
2023/04/14 07:47:06;;;;;;;7.22;3.28;;;;;;;8.36;100.00;100970.84;4954644;28;20057;-74
2023/04/14 07:49:31;;;;;;;7.60;2.70;;;;;;;8.37;100.00;100972.56;4958527;28;20644;-72
2023/04/14 07:51:58;;;;;;;4.43;2.35;;;;;;;8.41;100.00;100973.31;4960751;28;20041;-74
2023/04/14 07:54:23;;;;;;;4.20;2.17;;;;;;;8.46;100.00;100965.25;4958959;28;20084;-72
2023/04/14 07:56:49;;;;;;;4.40;2.95;;;;;;;8.48;100.00;100968.69;4969225;28;20168;-73
2023/04/14 07:59:14;;;;;;;6.25;2.30;;;;;;;8.54;100.00;100964.09;4948290;28;20664;-72
2023/04/14 08:01:40;;;;;;;8.48;2.67;;;;;;;8.65;100.00;100965.47;4970964;28;20158;-71
2023/04/14 08:04:06;;;;;;;4.68;2.22;;;;;;;8.80;100.00;100958.81;4971125;28;20144;-73
2023/04/14 08:06:31;;;;;;;8.20;2.25;;;;;;;8.92;100.00;100957.47;4974935;28;20134;-75
2023/04/14 08:08:57;;;;;;;7.82;2.33;;;;;;;9.07;100.00;100958.72;4964692;28;20038;-73
2023/04/14 08:11:23;;;;;;;6.28;2.70;;;;;;;9.18;100.00;100963.59;4961086;28;20489;-72
2023/04/14 08:13:49;;;;;;;6.10;2.42;;;;;;;9.32;100.00;100961.28;4976228;28;20054;-72
2023/04/14 08:16:15;;;;;;;6.05;2.63;;;;;;;9.45;100.00;100966.09;4944153;28;20104;-72
2023/04/14 08:18:41;;;;;;;6.10;2.33;;;;;;;9.55;100.00;100962.19;4960009;28;20697;-72
2023/04/14 08:21:07;;;;;;;6.15;2.25;;;;;;;9.69;100.00;100964.25;4912442;28;1397240;-73
2023/04/14 08:23:33;;;;;;;6.78;2.58;;;;;;;9.90;100.00;100965.19;4963743;28;20161;-72
2023/04/14 08:25:58;;;;;;;4.95;2.20;;;;;;;10.02;100.00;100955.88;4948186;28;20040;-72
2023/04/14 08:28:24;;;;;;;7.32;2.80;;;;;;;10.12;100.00;100956.38;4926432;28;20146;-72
2023/04/14 08:30:49;;;;;;;4.43;2.17;;;;;;;10.25;100.00;100958.50;4963942;28;20038;-72
2023/04/14 08:33:15;;;;;;;10.27;3.20;;;;;;;10.34;100.00;100955.47;4960943;28;20055;-72
2023/04/14 08:35:40;;;;;;;8.20;2.60;;;;;;;10.35;100.00;100959.81;4957517;28;20029;-76
2023/04/14 08:38:06;;;;;;;6.25;2.22;;;;;;;10.42;100.00;100963.97;4956637;28;20822;-72
2023/04/14 08:40:39;;;;;;;7.18;2.58;;;;;;;10.52;100.00;100953.00;4962289;28;20038;-71
2023/04/14 08:43:05;;;;;;;9.50;2.72;;;;;;;10.62;100.00;100966.69;4978585;28;20164;-72
2023/04/14 08:45:32;;;;;;;6.03;2.90;;;;;;;10.81;100.00;100953.47;4960659;28;20472;-71
2023/04/14 08:47:59;;;;;;;10.10;2.47;;;;;;;10.95;100.00;100971.41;4964245;28;20034;-72
2023/04/14 08:50:26;;;;;;;6.88;2.67;;;;;;;11.05;100.00;100967.41;4945102;28;20030;-71
2023/04/14 08:52:54;;;;;;;5.65;2.25;;;;;;;11.12;100.00;100973.31;4947384;28;20065;-72
2023/04/14 08:55:20;;;;;;;11.00;3.47;;;;;;;11.20;100.00;100971.16;4960252;28;20038;-71
2023/04/14 08:57:47;;;;;;;7.63;3.25;;;;;;;11.31;100.00;100961.84;4967778;28;20065;-72
2023/04/14 09:00:14;;;;;;;12.18;4.38;;;;;;;11.48;100.00;100972.50;4941016;28;20163;-73
2023/04/14 09:02:39;;;;;;;11.30;4.50;;;;;;;11.60;100.00;100963.09;4960158;28;20559;-71
2023/04/14 09:05:06;;;;;;;13.45;5.75;;;;;;;11.71;100.00;100969.72;4976730;28;20046;-71
2023/04/14 09:07:32;;;;;;;16.77;6.10;;;;;;;11.84;100.00;100965.53;4962449;28;20046;-71
2023/04/14 09:09:58;;;;;;;14.75;6.68;;;;;;;12.03;100.00;100968.16;4959262;28;20042;-72
2023/04/14 09:12:25;;;;;;;15.98;7.00;;;;;;;12.18;100.00;100963.00;4973012;28;20073;-71
2023/04/14 09:14:51;;;;;;;23.85;8.10;;;;;;;12.28;100.00;100958.97;4961508;28;20101;-72
2023/04/14 09:17:17;;;;;;;16.67;7.25;;;;;;;12.46;100.00;100962.47;4938371;28;20164;-72
2023/04/14 09:19:43;;;;;;;15.75;7.00;;;;;;;12.68;100.00;100950.72;4949598;28;20486;-71
2023/04/14 09:22:09;;;;;;;17.85;7.50;;;;;;;12.84;100.00;100948.13;4958709;28;20091;-71
2023/04/14 09:24:34;;;;;;;15.38;5.63;;;;;;;12.89;96.94;100948.75;4954688;28;21303;-71
2023/04/14 09:27:06;;;;;;;10.65;4.78;;;;;;;12.88;96.33;100957.66;4957942;28;20049;-71
2023/04/14 09:29:32;;;;;;;10.45;4.72;;;;;;;13.03;99.68;100952.44;4948284;28;20120;-73
2023/04/14 09:31:58;;;;;;;4.60;2.03;;;;;;;13.11;96.59;100944.91;4961065;28;20038;-71
2023/04/14 09:34:24;;;;;;;3.92;1.90;;;;;;;13.26;95.28;100956.50;4975961;28;20869;-71
2023/04/14 09:37:05;;;;;;;4.70;2.00;;;;;;;13.35;91.98;100959.59;4976907;28;20160;-71
2023/04/14 09:39:31;;;;;;;3.60;1.70;;;;;;;13.43;96.93;100960.91;4940596;28;20109;-71
2023/04/14 09:41:58;;;;;;;4.00;1.13;;;;;;;13.60;97.33;100953.78;4960140;28;20500;-71
2023/04/14 09:44:23;;;;;;;3.28;1.10;;;;;;;13.62;88.56;100957.22;4932980;28;20447;-72
2023/04/14 09:46:59;;;;;;;3.83;0.90;;;;;;;13.78;92.32;100956.34;4963496;28;20048;-70
2023/04/14 09:49:26;;;;;;;2.72;1.17;;;;;;;13.78;93.98;100956.34;4960498;28;20050;-72
2023/04/14 09:52:07;;;;;;;2.85;0.90;;;;;;;13.85;90.53;100952.41;4960093;28;20121;-71
2023/04/14 09:54:33;;;;;;;3.10;0.95;;;;;;;13.92;92.03;100945.78;4957995;28;20038;-72
2023/04/14 09:57:00;;;;;;;1.00;0.70;;;;;;;13.89;92.68;100948.59;4960918;28;20512;-72
2023/04/14 09:59:31;;;;;;;1.98;0.88;;;;;;;13.84;90.60;100951.53;4937051;28;20030;-72
2023/04/14 10:02:03;;;;;;;1.05;0.75;;;;;;;13.72;89.45;100957.53;4911677;28;20034;-71
2023/04/14 10:04:29;;;;;;;3.83;0.68;;;;;;;13.70;89.99;100957.66;4942288;28;20145;-71
2023/04/14 10:06:56;;;;;;;2.72;1.10;;;;;;;13.64;90.15;100960.66;4958859;28;20231;-75
2023/04/14 10:09:23;;;;;;;3.95;1.17;;;;;;;13.66;91.56;100964.09;4961311;28;20741;-72
2023/04/14 10:12:11;;;;;;;4.57;1.00;;;;;;;13.55;83.08;100955.84;4956957;28;20046;-71
2023/04/14 10:14:38;;;;;;;5.00;1.08;;;;;;;13.44;84.59;100957.28;4958903;28;20117;-71
2023/04/14 10:17:03;;;;;;;2.28;1.30;;;;;;;13.35;84.97;100951.63;4961413;28;20038;-72
2023/04/14 10:19:29;;;;;;;2.15;0.73;;;;;;;13.26;83.69;100955.63;4974436;28;22100;-72
2023/04/14 10:21:56;;;;;;;1.20;0.80;;;;;;;13.21;84.25;100963.00;4961836;28;20869;-71
2023/04/14 10:24:23;;;;;;;1.77;1.00;;;;;;;13.19;85.16;100949.81;4942787;28;20069;-71
2023/04/14 10:26:48;;;;;;;4.70;1.02;;;;;;;13.14;84.62;100952.69;4960753;28;20066;-71
2023/04/14 10:29:15;;;;;;;1.33;0.98;;;;;;;13.05;83.23;100955.88;4944662;28;20039;-71
2023/04/14 10:31:43;;;;;;;3.55;0.90;;;;;;;12.88;79.27;100948.81;4978743;28;20126;-71
2023/04/14 10:34:10;;;;;;;2.50;0.80;;;;;;;12.66;81.57;100954.41;4975297;28;21487;-71
2023/04/14 10:36:37;;;;;;;3.17;0.95;;;;;;;12.55;82.24;100960.28;4962823;28;20042;-71
2023/04/14 10:39:04;;;;;;;1.20;0.82;;;;;;;12.51;82.19;100954.25;4975855;28;20045;-70
2023/04/14 10:41:45;;;;;;;1.67;0.80;;;;;;;12.55;80.53;100950.53;4959294;28;20390;-71
2023/04/14 10:44:31;;;;;;;2.70;0.82;;;;;;;12.56;79.76;100941.59;4959756;28;20045;-70
2023/04/14 10:47:00;;;;;;;1.17;0.80;;;;;;;12.59;80.04;100946.75;4975163;28;20049;-72
2023/04/14 10:49:33;;;;;;;1.48;0.70;;;;;;;12.66;80.51;100951.75;4957165;28;20030;-71
2023/04/14 10:52:30;;;;;;;4.13;1.00;;;;;;;12.63;74.11;100937.69;4960690;28;20129;-70
2023/04/14 10:55:06;;;;;;;1.30;0.80;;;;;;;12.57;80.10;100943.31;4949416;28;20194;-71
2023/04/14 10:57:37;;;;;;;2.30;0.90;;;;;;;12.49;79.68;100948.19;4970318;28;20251;-71
2023/04/14 11:00:25;;;;;;;3.03;0.90;;;;;;;12.42;78.11;100946.78;4944792;28;20496;-71
2023/04/14 11:03:01;;;;;;;2.45;0.85;;;;;;;12.35;78.85;100952.41;4945263;28;20069;-71
2023/04/14 11:05:27;;;;;;;1.73;0.88;;;;;;;12.30;80.66;100949.13;4943455;28;20034;-69
2023/04/14 11:07:55;;;;;;;1.10;0.80;;;;;;;12.28;80.93;100947.47;4961840;28;20030;-70
2023/04/14 11:10:23;;;;;;;3.88;0.80;;;;;;;12.23;78.09;100947.72;4961345;28;20034;-70
2023/04/14 11:13:06;;;;;;;1.00;0.90;;;;;;;12.14;77.42;100949.03;4959872;28;20053;-70
2023/04/14 11:15:43;;;;;;;2.25;0.93;;;;;;;12.12;78.39;100950.03;4974238;28;20034;-70
2023/04/14 11:18:19;;;;;;;2.33;0.90;;;;;;;12.17;79.21;100953.34;4960773;28;20054;-71
2023/04/14 11:20:45;;;;;;;3.42;1.08;;;;;;;12.31;81.07;100942.03;4976006;28;20034;-71
2023/04/14 11:23:15;;;;;;;3.33;1.48;;;;;;;12.43;80.06;100945.84;4958117;28;20042;-71
2023/04/14 11:25:41;;;;;;;1.98;1.20;;;;;;;12.49;79.75;100945.53;4960639;28;20485;-71
2023/04/14 11:28:06;;;;;;;3.47;1.50;;;;;;;12.48;81.04;100947.31;4962347;28;20034;-71